createdAt,value
2022-10-13T00:01:37.503Z,101667.38
2022-10-13T00:04:05.308Z,101669.00
2022-10-13T00:06:33.067Z,101679.09
2022-10-13T00:09:03.812Z,101672.91
2022-10-13T00:11:32.006Z,101665.09
2022-10-13T00:14:00.605Z,101672.81
2022-10-13T00:16:28.987Z,101674.41
2022-10-13T00:18:58.391Z,101678.69
2022-10-13T00:21:29.740Z,101674.34
2022-10-13T00:23:57.513Z,101679.28
2022-10-13T00:26:28.333Z,101674.97
2022-10-13T00:28:56.857Z,101679.16
2022-10-13T00:31:25.761Z,101670.50
2022-10-13T00:33:55.266Z,101661.72
2022-10-13T00:36:28.384Z,101671.03
2022-10-13T00:38:56.270Z,101670.09
2022-10-13T00:41:24.135Z,101682.84
2022-10-13T00:44:09.755Z,101672.59
2022-10-13T00:46:39.426Z,101673.34
2022-10-13T00:49:11.294Z,101661.19
2022-10-13T00:51:43.513Z,101664.56
2022-10-13T00:54:12.571Z,101660.13
2022-10-13T00:56:42.972Z,101661.69
2022-10-13T00:59:13.990Z,101661.56
2022-10-13T01:01:43.600Z,101655.47
2022-10-13T01:04:14.515Z,101655.31
2022-10-13T01:06:46.370Z,101651.00
2022-10-13T01:09:14.356Z,101650.88
2022-10-13T01:11:52.844Z,101650.81
2022-10-13T01:14:25.522Z,101654.09
2022-10-13T01:17:00.319Z,101655.66
2022-10-13T01:19:39.758Z,101666.66
2022-10-13T01:22:27.745Z,101665.78
2022-10-13T01:24:59.542Z,101663.13
2022-10-13T01:27:36.632Z,101663.13
2022-10-13T01:30:14.251Z,101667.47
2022-10-13T01:33:06.762Z,101669.00
2022-10-13T01:35:41.225Z,101668.00
2022-10-13T01:38:10.878Z,101666.97
2022-10-13T01:40:41.578Z,101666.81
2022-10-13T01:43:15.067Z,101662.31
2022-10-13T01:45:47.627Z,101664.78
2022-10-13T01:48:16.691Z,101663.91
2022-10-13T01:50:45.026Z,101656.13
2022-10-13T01:53:15.386Z,101662.16
2022-10-13T01:55:59.777Z,101658.63
2022-10-13T01:58:31.347Z,101666.19
2022-10-13T02:01:08.171Z,101667.00
2022-10-13T02:03:40.825Z,101671.19
2022-10-13T02:06:17.210Z,101663.31
2022-10-13T02:08:49.684Z,101661.44
2022-10-13T02:11:19.511Z,101667.38
2022-10-13T02:13:52.154Z,101648.44
2022-10-13T02:16:24.171Z,101645.88
2022-10-13T02:18:52.584Z,101638.13
2022-10-13T02:21:23.327Z,101635.34
2022-10-13T02:23:51.090Z,101641.22
2022-10-13T02:26:19.190Z,101638.56
2022-10-13T02:28:47.275Z,101634.22
2022-10-13T02:31:18.105Z,101639.28
2022-10-13T02:33:49.232Z,101630.78
2022-10-13T02:36:17.043Z,101628.16
2022-10-13T02:38:44.775Z,101624.66
2022-10-13T02:41:12.616Z,101619.34
2022-10-13T02:43:40.363Z,101611.66
2022-10-13T02:46:11.260Z,101612.47
2022-10-13T02:48:39.023Z,101610.72
2022-10-13T02:51:17.452Z,101610.63
2022-10-13T02:53:45.694Z,101619.06
2022-10-13T02:56:13.490Z,101612.19
2022-10-13T02:58:43.986Z,101608.66
2022-10-13T03:01:13.201Z,101611.06
2022-10-13T03:03:43.476Z,101605.78
2022-10-13T03:06:12.611Z,101601.31
2022-10-13T03:08:40.397Z,101589.16
2022-10-13T03:11:08.115Z,101590.69
2022-10-13T03:13:35.932Z,101590.63
2022-10-13T03:16:03.746Z,101585.31
2022-10-13T03:18:31.571Z,101575.81
2022-10-13T03:20:59.770Z,101576.56
2022-10-13T03:23:34.401Z,101584.00
2022-10-13T03:26:02.243Z,101580.31
2022-10-13T03:28:30.124Z,101587.94
2022-10-13T03:31:01.878Z,101596.44
2022-10-13T03:33:31.237Z,101591.31
2022-10-13T03:36:02.601Z,101601.72
2022-10-13T03:38:32.381Z,101605.09
2022-10-13T03:41:05.152Z,101609.34
2022-10-13T03:43:36.203Z,101613.50
2022-10-13T03:46:05.265Z,101603.03
2022-10-13T03:48:33.581Z,101602.88
2022-10-13T03:51:04.046Z,101609.59
2022-10-13T03:53:33.343Z,101618.09
2022-10-13T03:56:10.389Z,101623.22
2022-10-13T03:58:38.214Z,101629.16
2022-10-13T04:01:06.483Z,101625.69
2022-10-13T04:03:34.603Z,101625.69
2022-10-13T04:06:02.915Z,101611.03
2022-10-13T04:08:33.088Z,101592.88
2022-10-13T04:11:02.433Z,101578.97
2022-10-13T04:13:30.185Z,101569.31
2022-10-13T04:16:01.387Z,101553.78
2022-10-13T04:18:31.017Z,101553.63
2022-10-13T04:21:04.127Z,101549.16
2022-10-13T04:23:31.967Z,101555.97
2022-10-13T04:26:03.861Z,101546.53
2022-10-13T04:28:33.683Z,101543.06
2022-10-13T04:31:04.487Z,101529.47
2022-10-13T04:33:35.349Z,101534.59
2022-10-13T04:36:04.955Z,101530.25
2022-10-13T04:38:37.582Z,101533.66
2022-10-13T04:41:07.483Z,101525.97
2022-10-13T04:43:35.688Z,101528.53
2022-10-13T04:46:03.751Z,101531.97
2022-10-13T04:48:31.696Z,101541.22
2022-10-13T04:51:04.048Z,101548.91
2022-10-13T04:53:32.330Z,101542.94
2022-10-13T04:56:02.320Z,101547.16
2022-10-13T04:58:31.562Z,101550.50
2022-10-13T05:00:59.419Z,101555.50
2022-10-13T05:03:27.445Z,101540.69
2022-10-13T05:05:55.334Z,101549.97
2022-10-13T05:08:23.073Z,101547.41
2022-10-13T05:10:57.519Z,101543.19
2022-10-13T05:13:25.901Z,101541.34
2022-10-13T05:15:56.032Z,101542.16
2022-10-13T05:18:24.194Z,101548.13
2022-10-13T05:20:51.971Z,101549.03
2022-10-13T05:23:19.754Z,101546.47
2022-10-13T05:25:47.491Z,101555.75
2022-10-13T05:28:15.615Z,101554.00
2022-10-13T05:30:43.469Z,101542.78
2022-10-13T05:33:13.200Z,101537.50
2022-10-13T05:35:40.921Z,101533.91
2022-10-13T05:38:09.698Z,101527.84
2022-10-13T05:40:39.152Z,101529.50
2022-10-13T05:43:06.904Z,101532.88
2022-10-13T05:45:34.820Z,101529.38
2022-10-13T05:48:02.766Z,101523.13
2022-10-13T05:50:35.530Z,101525.53
2022-10-13T05:53:04.502Z,101518.56
2022-10-13T05:55:32.921Z,101528.72
2022-10-13T05:58:02.865Z,101528.78
2022-10-13T06:00:30.840Z,101528.91
2022-10-13T06:03:38.994Z,101532.31
2022-10-13T06:06:06.137Z,101520.25
2022-10-13T06:08:52.656Z,101514.28
2022-10-13T06:25:20.089Z,101471.66
2022-10-13T06:25:26.158Z,101466.38
2022-10-13T06:31:27.108Z,101466.22
2022-10-13T06:40:47.436Z,101461.41
2022-10-13T06:43:20.806Z,101462.28
2022-10-13T06:45:52.503Z,101463.25
2022-10-13T06:48:43.367Z,101456.47
2022-10-13T06:54:54.880Z,101485.41
2022-10-13T06:57:37.425Z,101494.00
2022-10-13T07:00:16.545Z,101497.72
2022-10-13T07:03:16.545Z,101497.06
2022-10-13T08:27:06.878Z,101508.16
2022-10-13T08:29:43.011Z,101515.44
2022-10-13T08:38:27.068Z,101511.63
2022-10-13T09:35:00.339Z,101444.06
2022-10-13T09:37:35.557Z,101438.75
2022-10-13T10:14:09.350Z,101390.16
2022-10-13T10:14:56.777Z,101393.53
2022-10-13T10:30:37.711Z,101370.44
2022-10-13T10:33:15.381Z,101355.78
2022-10-13T10:35:57.230Z,101356.75
2022-10-13T11:33:32.839Z,101293.91
2022-10-13T12:23:49.435Z,101302.47
2022-10-13T12:30:24.096Z,101293.72
2022-10-13T12:35:45.980Z,101283.41
2022-10-13T12:36:12.284Z,101304.22
2022-10-13T12:55:33.181Z,101226.06
2022-10-13T17:03:37.832Z,101065.97
2022-10-13T17:06:20.237Z,101061.63
2022-10-13T17:08:49.305Z,101045.16
2022-10-13T17:11:22.401Z,101050.34
2022-10-13T17:13:51.740Z,101067.69
2022-10-13T17:16:22.810Z,101068.53
2022-10-13T17:18:53.008Z,101055.50
2022-10-13T17:24:52.162Z,101048.53
2022-10-13T17:27:22.234Z,101054.59
2022-10-13T17:29:53.296Z,101049.38
2022-10-13T17:32:32.056Z,101049.44
2022-10-13T17:35:28.491Z,101053.78
2022-10-13T17:38:16.084Z,101063.34
2022-10-13T17:41:19.350Z,101061.59
2022-10-13T17:44:10.296Z,101067.66
2022-10-13T17:46:43.784Z,101064.97
2022-10-13T17:49:34.398Z,101064.03
2022-10-13T17:52:06.765Z,101058.78
2022-10-13T17:54:57.357Z,101058.72
2022-10-13T17:57:26.059Z,101063.03
2022-10-13T18:00:08.050Z,101066.47
2022-10-13T18:02:36.356Z,101073.34
2022-10-13T18:05:37.348Z,101071.53
2022-10-13T18:08:25.403Z,101065.44
2022-10-13T18:11:50.960Z,101072.25
2022-10-13T18:14:36.518Z,101075.72
2022-10-13T18:17:20.785Z,101073.13
2022-10-13T18:19:56.122Z,101068.69
2022-10-13T18:22:31.245Z,101068.59
2022-10-13T18:25:24.879Z,101060.72
2022-10-13T18:28:13.870Z,101064.09
2022-10-13T18:30:53.660Z,101057.03
2022-10-13T18:33:22.519Z,101065.59
2022-10-13T18:35:55.803Z,101070.75
2022-10-13T18:38:25.181Z,101068.06
2022-10-13T18:45:57.242Z,101048.06
2022-10-13T18:52:14.121Z,101060.88
2022-10-13T18:55:05.800Z,101053.94
2022-10-13T18:57:40.410Z,101061.66
2022-10-13T19:01:06.493Z,101045.25
2022-10-13T19:04:14.569Z,101054.66
2022-10-13T19:06:51.762Z,101049.47
2022-10-13T19:09:21.828Z,101046.81
2022-10-13T19:11:52.991Z,101042.50
2022-10-13T19:14:21.963Z,101044.19
2022-10-13T19:16:51.157Z,101042.38
2022-10-13T19:19:21.935Z,101041.47
2022-10-13T19:21:59.803Z,101046.66
2022-10-13T19:24:28.918Z,101052.66
2022-10-13T19:26:58.380Z,101044.06
2022-10-13T19:29:28.977Z,101042.25
2022-10-13T19:31:58.299Z,101059.59
2022-10-13T19:34:29.414Z,101058.72
2022-10-13T19:36:59.909Z,101056.94
2022-10-13T19:39:32.629Z,101059.56
2022-10-13T19:42:08.798Z,101069.06
2022-10-13T19:44:38.901Z,101068.16
2022-10-13T19:47:30.573Z,101071.59
2022-10-13T19:50:18.129Z,101061.16
2022-10-13T19:52:47.768Z,101064.66
2022-10-13T19:55:16.947Z,101062.84
2022-10-13T19:57:46.237Z,101062.84
2022-10-13T20:00:16.952Z,101052.50
2022-10-13T20:02:48.457Z,101062.06
2022-10-13T20:05:25.305Z,101052.47
2022-10-13T20:07:53.884Z,101048.13
2022-10-13T20:10:22.523Z,101041.22
2022-10-13T20:12:51.203Z,101045.56
2022-10-13T20:15:19.668Z,101031.66
2022-10-13T20:18:14.936Z,101029.94
2022-10-13T20:20:49.996Z,101036.88
2022-10-13T20:23:42.809Z,101029.94
2022-10-13T20:26:14.159Z,101037.66
2022-10-13T20:28:43.779Z,101037.59
2022-10-13T20:31:12.959Z,101032.41
2022-10-13T20:33:44.086Z,101040.16
2022-10-13T20:36:19.183Z,101029.84
2022-10-13T20:38:54.486Z,101026.47
2022-10-13T20:41:24.878Z,101027.31
2022-10-13T20:43:53.901Z,101024.66
2022-10-13T20:46:39.855Z,101023.72
2022-10-13T20:49:13.782Z,101014.19
2022-10-13T20:51:59.434Z,101032.28
2022-10-13T20:54:42.135Z,101021.88
2022-10-13T20:57:23.929Z,101021.00
2022-10-13T20:59:52.759Z,101012.25
2022-10-13T21:02:21.579Z,101011.31
2022-10-13T21:04:50.370Z,101007.75
2022-10-13T21:07:21.765Z,101015.53
2022-10-13T21:09:53.766Z,101002.50
2022-10-13T21:12:25.425Z,101003.22
2022-10-13T21:14:55.541Z,101004.94
2022-10-13T21:17:24.159Z,101013.53
2022-10-13T21:19:54.961Z,101008.22
2022-10-13T21:22:24.683Z,101008.16
2022-10-13T21:24:52.935Z,101010.75
2022-10-13T21:27:23.758Z,101009.00
2022-10-13T21:29:52.155Z,101001.16
2022-10-13T21:32:22.959Z,101008.91
2022-10-13T21:34:51.175Z,101020.09
2022-10-13T21:37:20.019Z,101020.94
2022-10-13T21:39:53.589Z,101011.34
2022-10-13T21:42:22.052Z,101016.50
2022-10-13T21:44:51.879Z,101006.09
2022-10-13T21:47:22.442Z,101009.50
2022-10-13T21:49:50.967Z,101013.75
2022-10-13T21:52:19.323Z,101012.84
2022-10-13T21:54:47.425Z,101004.13
2022-10-13T21:57:17.183Z,101003.19
2022-10-13T21:59:47.569Z,101000.59
2022-10-13T22:02:19.192Z,101012.56
2022-10-13T22:04:47.627Z,101015.16
2022-10-13T22:07:16.864Z,101004.72
2022-10-13T22:09:47.657Z,101012.50
2022-10-13T22:12:17.243Z,101005.56
2022-10-13T22:14:45.433Z,101012.44
2022-10-13T22:17:13.667Z,101012.41
2022-10-13T22:19:41.782Z,100998.50
2022-10-13T22:22:10.010Z,101008.88
2022-10-13T22:24:39.840Z,101011.38
2022-10-13T22:27:08.039Z,101011.31
2022-10-13T22:29:37.598Z,101007.75
2022-10-13T22:32:06.298Z,100999.97
2022-10-13T22:34:34.518Z,101011.97
2022-10-13T22:37:02.705Z,101003.31
2022-10-13T22:39:31.121Z,101005.00
2022-10-13T22:41:59.338Z,101000.59
2022-10-13T22:44:29.826Z,100993.69
2022-10-13T22:46:59.362Z,101003.19
2022-10-13T22:49:27.856Z,101000.53
2022-10-13T22:51:59.695Z,101007.34
2022-10-13T22:54:31.127Z,101009.91
2022-10-13T22:56:59.480Z,101005.50
2022-10-13T22:59:27.552Z,101001.13
2022-10-13T23:01:58.013Z,101003.63
2022-10-13T23:04:27.561Z,101000.97
2022-10-13T23:06:55.838Z,101000.91
2022-10-13T23:09:23.934Z,100991.41
2022-10-13T23:11:55.081Z,100974.97
2022-10-13T23:14:25.935Z,100980.97
2022-10-13T23:16:54.240Z,100976.56
2022-10-13T23:19:22.962Z,100977.41
2022-10-13T23:21:52.878Z,100965.28
2022-10-13T23:24:21.127Z,100961.81
2022-10-13T23:26:49.437Z,100961.78
2022-10-13T23:29:17.702Z,100961.72
2022-10-13T23:31:45.954Z,100958.31
2022-10-13T23:34:15.450Z,100955.69
2022-10-13T23:36:43.795Z,100951.31
2022-10-13T23:39:13.452Z,100959.03
2022-10-13T23:41:41.758Z,100953.78
2022-10-13T23:44:12.362Z,100948.59
2022-10-13T23:46:40.473Z,100956.34
2022-10-13T23:49:12.432Z,100945.03
2022-10-13T23:51:43.463Z,100941.56
2022-10-13T23:54:13.495Z,100946.72
2022-10-13T23:56:41.858Z,100948.41
2022-10-13T23:59:10.000Z,100946.56
